Clipper Saga — LAFY6 — position and weather

sailwx.info

Track history (hours):
 
Tides and Currents Weather Stations Pressure Air Temp Water Temp Dewpoint Dewpoint Depression Visibility Wind Speed Wind Dir Waves Ship Positions

Clipper Saga

Last reported at 2016-Jul-26 16:29 UTC. Time now 2016-Jul-26 17:57 UTC.
Position N 59°06' E 009°38'.

Length 89 m; draft 5.9 m.

Type: Ship (hazmat cat C). MMSI: 246657008.

Date/timePositionNaut miles runAvg speedWind from/ knotsBaromVisibWave heightAir tempDewpointWater temp
2016-Jul-26 16:29N 59°06' E 009°38'0 0.0
2016-Jul-26 15:29N 59°06' E 009°38'3 3.2
2016-Jul-26 14:31N 59°03' E 009°41'9 9.8
2016-Jul-26 13:34N 58°55' E 009°50'1110.9
2016-Jul-26 12:34N 58°45' E 010°00'1212.0
2016-Jul-26 11:34N 58°35' E 010°13'1212.2
2016-Jul-26 10:33N 58°25' E 010°25'1212.2
2016-Jul-26 09:34N 58°14' E 010°37'1211.9
2016-Jul-26 08:33N 58°05' E 010°50'1110.9
2016-Jul-26 07:33N 57°57' E 011°04'1111.1
2016-Jul-26 06:34N 57°48' E 011°18'1211.6
2016-Jul-26 05:33N 57°40' E 011°32'1010.2
2016-Jul-26 04:33N 57°41' E 011°51'6 6.2
2016-Jul-26 03:34N 57°45' E 012°00'6 6.2
2016-Jul-26 02:34N 57°51' E 012°00'9 8.8
2016-Jul-26 01:33N 57°59' E 012°08'8 8.4
2016-Jul-26 00:33N 58°08' E 012°07'4 3.7
2016-Jul-25 23:34N 58°11' E 012°07'6 5.4
2016-Jul-25 22:25N 58°16' E 012°15'0 0.3
2016-Jul-25 21:31N 58°16' E 012°16'0 0.2
2016-Jul-25 20:28N 58°16' E 012°16'0 0.0
2016-Jul-25 19:31N 58°16' E 012°16'0 0.0
2016-Jul-25 18:19N 58°16' E 012°16'0 0.0
2016-Jul-25 17:31N 58°16' E 012°16'0 0.0
2016-Jul-25 16:28N 58°16' E 012°16'0 0.0
2016-Jul-25 15:31N 58°16' E 012°16'0 0.0
2016-Jul-25 14:28N 58°16' E 012°16'0 0.0
2016-Jul-25 13:10N 58°16' E 012°16'0 0.0
2016-Jul-25 12:31N 58°16' E 012°16'0 0.0
2016-Jul-25 11:31N 58°16' E 012°16'0 0.0
2016-Jul-25 10:33N 58°16' E 012°16'5 5.1
2016-Jul-25 09:33N 58°20' E 012°21'3 3.4
2016-Jul-25 08:33N 58°23' E 012°19'1110.9
2016-Jul-25 07:33N 58°31' E 012°33'2612.4
2016-Jul-25 05:26N 58°47' E 013°14'1112.1
2016-Jul-25 04:32N 58°55' E 013°28'22 0.7
2016-Jul-23 19:33N 58°41' E 012°55'1111.3
2016-Jul-23 18:33N 58°34' E 012°38'1111.2
2016-Jul-23 17:33N 58°26' E 012°23'6 5.8
2016-Jul-23 16:33N 58°20' E 012°21'4 3.6
2016-Jul-23 15:33N 58°17' E 012°17'2 1.9
2016-Jul-23 14:33N 58°16' E 012°15'2 1.3
2016-Jul-23 13:12N 58°15' E 012°13'5 8.5
2016-Jul-23 12:33N 58°10' E 012°07'2 2.2
2016-Jul-23 11:33N 58°08' E 012°07'1 1.2
2016-Jul-23 10:33N 58°07' E 012°07'7 6.8
2016-Jul-23 09:33N 58°00' E 012°08'7 7.4
2016-Jul-23 08:33N 57°53' E 012°02'6 6.0
2016-Jul-23 07:33N 57°47' E 012°01'5 5.1
2016-Jul-23 06:33N 57°42' E 011°57'12 5.7
2016-Jul-23 04:31N 57°35' E 011°41'0 0.0
2016-Jul-23 03:28N 57°35' E 011°41'0 0.0
2016-Jul-23 02:31N 57°35' E 011°41'0 0.0
2016-Jul-23 01:31N 57°35' E 011°41'0 0.0
2016-Jul-23 00:28N 57°35' E 011°41'0 0.0
2016-Jul-22 23:31N 57°35' E 011°41'0 0.0
2016-Jul-22 22:28N 57°35' E 011°41'0 0.1
2016-Jul-22 21:31N 57°35' E 011°41'7 6.7
2016-Jul-22 20:33N 57°37' E 011°29'1111.5
2016-Jul-22 19:33N 57°42' E 011°10'1211.7
2016-Jul-22 18:33N 57°47' E 010°50'1111.5
2016-Jul-22 17:33N 57°48' E 010°29'1111.4
2016-Jul-22 16:33N 57°45' E 010°08'16611.5
2016-Jul-22 02:05N 55°43' E 006°42'7811.5
2016-Jul-21 19:17N 54°35' E 005°37'1311.5
2016-Jul-21 18:09N 54°24' E 005°25'711.3
2016-Jul-21 17:33N 54°18' E 005°20'1111.2
2016-Jul-21 16:33N 54°08' E 005°10'1110.9
2016-Jul-21 15:33N 53°58' E 005°03'1110.8
2016-Jul-21 14:33N 53°48' E 004°57'5410.7
2016-Jul-21 09:33N 52°59' E 004°21'1110.9
2016-Jul-21 08:32N 52°49' E 004°13'1111.2
2016-Jul-21 07:33N 52°40' E 004°02'1111.3
2016-Jul-21 06:33N 52°30' E 003°55'1211.9
2016-Jul-21 05:33N 52°18' E 003°52'1212.2
2016-Jul-21 04:33N 52°06' E 003°55'9 9.2
2016-Jul-21 03:33N 51°59' E 004°05'9 8.9
2016-Jul-21 02:33N 51°54' E 004°17'1 0.5
2016-Jul-21 01:05N 51°53' E 004°17'0 0.0
2016-Jul-21 00:20N 51°53' E 004°17'0 0.0
2016-Jul-20 23:32N 51°53' E 004°17'0 0.0
2016-Jul-20 22:23N 51°53' E 004°17'0 0.0
2016-Jul-20 21:32N 51°53' E 004°17'0 0.0
2016-Jul-20 20:29N 51°53' E 004°17'0 0.0
2016-Jul-20 19:23N 51°53' E 004°17'0 0.0
2016-Jul-20 18:26N 51°53' E 004°17'0 0.0
2016-Jul-20 17:29N 51°53' E 004°17'0 0.0
2016-Jul-20 16:23N 51°53' E 004°17'0 0.0
2016-Jul-20 15:26N 51°53' E 004°17'0 0.0
2016-Jul-20 14:29N 51°53' E 004°17'0 0.0
2016-Jul-20 13:26N 51°53' E 004°17'0 0.0
2016-Jul-20 12:32N 51°53' E 004°17'0 0.0
2016-Jul-20 11:29N 51°53' E 004°17'0 0.0
2016-Jul-20 10:32N 51°53' E 004°17'0 0.0
2016-Jul-20 08:29N 51°53' E 004°17'0 0.0
2016-Jul-20 07:26N 51°53' E 004°17'0 0.0
2016-Jul-20 06:32N 51°53' E 004°17'0 0.0
2016-Jul-20 05:26N 51°53' E 004°17'0 0.0
2016-Jul-20 04:32N 51°53' E 004°17'0 0.0
2016-Jul-20 03:23N 51°53' E 004°17'0 0.0
2016-Jul-20 02:29N 51°53' E 004°17'0 0.0
2016-Jul-20 01:26N 51°53' E 004°17'0 0.0
2016-Jul-20 00:32N 51°53' E 004°17'0 0.0
2016-Jul-19 23:32N 51°53' E 004°17'0 0.0
2016-Jul-19 22:14N 51°53' E 004°17'0 0.0
2016-Jul-19 21:14N 51°53' E 004°17'0 0.0
2016-Jul-19 20:20N 51°53' E 004°17'0 0.0
2016-Jul-19 19:29N 51°53' E 004°17'0 0.0
2016-Jul-19 18:20N 51°53' E 004°17'0 0.0
2016-Jul-19 17:29N 51°53' E 004°17'0 0.0
2016-Jul-19 16:20N 51°53' E 004°17'0 0.0
2016-Jul-19 15:20N 51°53' E 004°17'0 0.0
2016-Jul-19 14:26N 51°53' E 004°17'0 0.0
2016-Jul-19 13:26N 51°53' E 004°17'0 0.0
2016-Jul-19 12:29N 51°53' E 004°17'0 0.0
2016-Jul-19 11:34N 51°53' E 004°17'0 0.2
2016-Jul-19 10:21N 51°53' E 004°17'0 0.0
2016-Jul-19 09:24N 51°53' E 004°17'0 0.0
2016-Jul-19 08:09N 51°53' E 004°17'0 0.0
2016-Jul-19 07:33N 51°53' E 004°17'0 0.0
2016-Jul-19 04:06N 51°53' E 004°17'0 0.0
2016-Jul-19 03:18N 51°53' E 004°17'0 0.0
2016-Jul-18 11:30N 51°53' E 004°17'0 0.0
2016-Jul-18 10:30N 51°53' E 004°17'0 0.0
2016-Jul-18 09:24N 51°53' E 004°17'0 0.0
2016-Jul-18 08:30N 51°53' E 004°17'0 0.0
2016-Jul-18 07:24N 51°53' E 004°17'0 0.0
2016-Jul-18 04:24N 51°53' E 004°17'0 0.0
2016-Jul-18 03:30N 51°53' E 004°17'0 0.0
2016-Jul-18 02:33N 51°53' E 004°17'0 0.0
2016-Jul-18 01:18N 51°53' E 004°17'0 0.0
2016-Jul-18 00:06N 51°53' E 004°17'0 0.0
2016-Jul-17 23:30N 51°53' E 004°17'0 0.0
2016-Jul-17 21:18N 51°53' E 004°17'0 0.0
2016-Jul-17 17:09N 51°53' E 004°17'0 0.0
2016-Jul-17 15:12N 51°53' E 004°17'0 0.0
2016-Jul-17 14:18N 51°53' E 004°17'0 0.0
2016-Jul-17 13:06N 51°53' E 004°17'0 0.0
2016-Jul-17 12:24N 51°53' E 004°17'0 0.0
2016-Jul-17 11:06N 51°53' E 004°17'0 0.0
2016-Jul-17 10:30N 51°53' E 004°17'0 0.0
2016-Jul-17 09:30N 51°53' E 004°17'0 0.0
2016-Jul-17 04:18N 51°53' E 004°17'0 0.0
2016-Jul-17 03:30N 51°53' E 004°17'0 0.0
2016-Jul-17 02:12N 51°53' E 004°17'0 0.0
2016-Jul-17 00:30N 51°53' E 004°17'0 0.0
2016-Jul-16 23:30N 51°53' E 004°17'0 0.0
2016-Jul-16 22:30N 51°53' E 004°17'  
Track history (hours):
 
Tides and Currents Weather Stations Pressure Air Temp Water Temp Dewpoint Dewpoint Depression Visibility Wind Speed Wind Dir Waves Ship Positions

Clipper Saga

Last reported at 2016-Jul-26 16:29 UTC. Time now 2016-Jul-26 17:57 UTC.
Position N 59°06' E 009°38'.

Length 89 m; draft 5.9 m.

Type: Ship (hazmat cat C). MMSI: 246657008.

Date/timePositionNaut miles runAvg speedWind from/ knotsBaromVisibWave heightAir tempDewpointWater temp
2016-Jul-26 16:29N 59°06' E 009°38'0 0.0
2016-Jul-26 15:29N 59°06' E 009°38'3 3.2
2016-Jul-26 14:31N 59°03' E 009°41'9 9.8
2016-Jul-26 13:34N 58°55' E 009°50'1110.9
2016-Jul-26 12:34N 58°45' E 010°00'1212.0
2016-Jul-26 11:34N 58°35' E 010°13'1212.2
2016-Jul-26 10:33N 58°25' E 010°25'1212.2
2016-Jul-26 09:34N 58°14' E 010°37'1211.9
2016-Jul-26 08:33N 58°05' E 010°50'1110.9
2016-Jul-26 07:33N 57°57' E 011°04'1111.1
2016-Jul-26 06:34N 57°48' E 011°18'1211.6
2016-Jul-26 05:33N 57°40' E 011°32'1010.2
2016-Jul-26 04:33N 57°41' E 011°51'6 6.2
2016-Jul-26 03:34N 57°45' E 012°00'6 6.2
2016-Jul-26 02:34N 57°51' E 012°00'9 8.8
2016-Jul-26 01:33N 57°59' E 012°08'8 8.4
2016-Jul-26 00:33N 58°08' E 012°07'4 3.7
2016-Jul-25 23:34N 58°11' E 012°07'6 5.4
2016-Jul-25 22:25N 58°16' E 012°15'0 0.3
2016-Jul-25 21:31N 58°16' E 012°16'0 0.2
2016-Jul-25 20:28N 58°16' E 012°16'0 0.0
2016-Jul-25 19:31N 58°16' E 012°16'0 0.0
2016-Jul-25 18:19N 58°16' E 012°16'0 0.0
2016-Jul-25 17:31N 58°16' E 012°16'0 0.0
2016-Jul-25 16:28N 58°16' E 012°16'0 0.0
2016-Jul-25 15:31N 58°16' E 012°16'0 0.0
2016-Jul-25 14:28N 58°16' E 012°16'0 0.0
2016-Jul-25 13:10N 58°16' E 012°16'0 0.0
2016-Jul-25 12:31N 58°16' E 012°16'0 0.0
2016-Jul-25 11:31N 58°16' E 012°16'0 0.0
2016-Jul-25 10:33N 58°16' E 012°16'5 5.1
2016-Jul-25 09:33N 58°20' E 012°21'3 3.4
2016-Jul-25 08:33N 58°23' E 012°19'1110.9
2016-Jul-25 07:33N 58°31' E 012°33'2612.4
2016-Jul-25 05:26N 58°47' E 013°14'1112.1
2016-Jul-25 04:32N 58°55' E 013°28'22 0.7
2016-Jul-23 19:33N 58°41' E 012°55'1111.3
2016-Jul-23 18:33N 58°34' E 012°38'1111.2
2016-Jul-23 17:33N 58°26' E 012°23'6 5.8
2016-Jul-23 16:33N 58°20' E 012°21'4 3.6
2016-Jul-23 15:33N 58°17' E 012°17'2 1.9
2016-Jul-23 14:33N 58°16' E 012°15'2 1.3
2016-Jul-23 13:12N 58°15' E 012°13'5 8.5
2016-Jul-23 12:33N 58°10' E 012°07'2 2.2
2016-Jul-23 11:33N 58°08' E 012°07'1 1.2
2016-Jul-23 10:33N 58°07' E 012°07'7 6.8
2016-Jul-23 09:33N 58°00' E 012°08'7 7.4
2016-Jul-23 08:33N 57°53' E 012°02'6 6.0
2016-Jul-23 07:33N 57°47' E 012°01'5 5.1
2016-Jul-23 06:33N 57°42' E 011°57'12 5.7
2016-Jul-23 04:31N 57°35' E 011°41'0 0.0
2016-Jul-23 03:28N 57°35' E 011°41'0 0.0
2016-Jul-23 02:31N 57°35' E 011°41'0 0.0
2016-Jul-23 01:31N 57°35' E 011°41'0 0.0
2016-Jul-23 00:28N 57°35' E 011°41'0 0.0
2016-Jul-22 23:31N 57°35' E 011°41'0 0.0
2016-Jul-22 22:28N 57°35' E 011°41'0 0.1
2016-Jul-22 21:31N 57°35' E 011°41'7 6.7
2016-Jul-22 20:33N 57°37' E 011°29'1111.5
2016-Jul-22 19:33N 57°42' E 011°10'1211.7
2016-Jul-22 18:33N 57°47' E 010°50'1111.5
2016-Jul-22 17:33N 57°48' E 010°29'1111.4
2016-Jul-22 16:33N 57°45' E 010°08'16611.5
2016-Jul-22 02:05N 55°43' E 006°42'7811.5
2016-Jul-21 19:17N 54°35' E 005°37'1311.5
2016-Jul-21 18:09N 54°24' E 005°25'711.3
2016-Jul-21 17:33N 54°18' E 005°20'1111.2
2016-Jul-21 16:33N 54°08' E 005°10'1110.9
2016-Jul-21 15:33N 53°58' E 005°03'1110.8
2016-Jul-21 14:33N 53°48' E 004°57'5410.7
2016-Jul-21 09:33N 52°59' E 004°21'1110.9
2016-Jul-21 08:32N 52°49' E 004°13'1111.2
2016-Jul-21 07:33N 52°40' E 004°02'1111.3
2016-Jul-21 06:33N 52°30' E 003°55'1211.9
2016-Jul-21 05:33N 52°18' E 003°52'1212.2
2016-Jul-21 04:33N 52°06' E 003°55'9 9.2
2016-Jul-21 03:33N 51°59' E 004°05'9 8.9
2016-Jul-21 02:33N 51°54' E 004°17'1 0.5
2016-Jul-21 01:05N 51°53' E 004°17'0 0.0
2016-Jul-21 00:20N 51°53' E 004°17'0 0.0
2016-Jul-20 23:32N 51°53' E 004°17'0 0.0
2016-Jul-20 22:23N 51°53' E 004°17'0 0.0
2016-Jul-20 21:32N 51°53' E 004°17'0 0.0
2016-Jul-20 20:29N 51°53' E 004°17'0 0.0
2016-Jul-20 19:23N 51°53' E 004°17'0 0.0
2016-Jul-20 18:26N 51°53' E 004°17'0 0.0
2016-Jul-20 17:29N 51°53' E 004°17'0 0.0
2016-Jul-20 16:23N 51°53' E 004°17'0 0.0
2016-Jul-20 15:26N 51°53' E 004°17'0 0.0
2016-Jul-20 14:29N 51°53' E 004°17'0 0.0
2016-Jul-20 13:26N 51°53' E 004°17'0 0.0
2016-Jul-20 12:32N 51°53' E 004°17'0 0.0
2016-Jul-20 11:29N 51°53' E 004°17'0 0.0
2016-Jul-20 10:32N 51°53' E 004°17'0 0.0
2016-Jul-20 08:29N 51°53' E 004°17'0 0.0
2016-Jul-20 07:26N 51°53' E 004°17'0 0.0
2016-Jul-20 06:32N 51°53' E 004°17'0 0.0
2016-Jul-20 05:26N 51°53' E 004°17'0 0.0
2016-Jul-20 04:32N 51°53' E 004°17'0 0.0
2016-Jul-20 03:23N 51°53' E 004°17'0 0.0
2016-Jul-20 02:29N 51°53' E 004°17'0 0.0
2016-Jul-20 01:26N 51°53' E 004°17'0 0.0
2016-Jul-20 00:32N 51°53' E 004°17'0 0.0
2016-Jul-19 23:32N 51°53' E 004°17'0 0.0
2016-Jul-19 22:14N 51°53' E 004°17'0 0.0
2016-Jul-19 21:14N 51°53' E 004°17'0 0.0
2016-Jul-19 20:20N 51°53' E 004°17'0 0.0
2016-Jul-19 19:29N 51°53' E 004°17'0 0.0
2016-Jul-19 18:20N 51°53' E 004°17'0 0.0
2016-Jul-19 17:29N 51°53' E 004°17'0 0.0
2016-Jul-19 16:20N 51°53' E 004°17'0 0.0
2016-Jul-19 15:20N 51°53' E 004°17'0 0.0
2016-Jul-19 14:26N 51°53' E 004°17'0 0.0
2016-Jul-19 13:26N 51°53' E 004°17'0 0.0
2016-Jul-19 12:29N 51°53' E 004°17'0 0.0
2016-Jul-19 11:34N 51°53' E 004°17'0 0.2
2016-Jul-19 10:21N 51°53' E 004°17'0 0.0
2016-Jul-19 09:24N 51°53' E 004°17'0 0.0
2016-Jul-19 08:09N 51°53' E 004°17'0 0.0
2016-Jul-19 07:33N 51°53' E 004°17'0 0.0
2016-Jul-19 04:06N 51°53' E 004°17'0 0.0
2016-Jul-19 03:18N 51°53' E 004°17'0 0.0
2016-Jul-18 11:30N 51°53' E 004°17'0 0.0
2016-Jul-18 10:30N 51°53' E 004°17'0 0.0
2016-Jul-18 09:24N 51°53' E 004°17'0 0.0
2016-Jul-18 08:30N 51°53' E 004°17'0 0.0
2016-Jul-18 07:24N 51°53' E 004°17'0 0.0
2016-Jul-18 04:24N 51°53' E 004°17'0 0.0
2016-Jul-18 03:30N 51°53' E 004°17'0 0.0
2016-Jul-18 02:33N 51°53' E 004°17'0 0.0
2016-Jul-18 01:18N 51°53' E 004°17'0 0.0
2016-Jul-18 00:06N 51°53' E 004°17'0 0.0
2016-Jul-17 23:30N 51°53' E 004°17'0 0.0
2016-Jul-17 21:18N 51°53' E 004°17'0 0.0
2016-Jul-17 17:09N 51°53' E 004°17'0 0.0
2016-Jul-17 15:12N 51°53' E 004°17'0 0.0
2016-Jul-17 14:18N 51°53' E 004°17'0 0.0
2016-Jul-17 13:06N 51°53' E 004°17'0 0.0
2016-Jul-17 12:24N 51°53' E 004°17'0 0.0
2016-Jul-17 11:06N 51°53' E 004°17'0 0.0
2016-Jul-17 10:30N 51°53' E 004°17'0 0.0
2016-Jul-17 09:30N 51°53' E 004°17'0 0.0
2016-Jul-17 04:18N 51°53' E 004°17'0 0.0
2016-Jul-17 03:30N 51°53' E 004°17'0 0.0
2016-Jul-17 02:12N 51°53' E 004°17'0 0.0
2016-Jul-17 00:30N 51°53' E 004°17'0 0.0
2016-Jul-16 23:30N 51°53' E 004°17'0 0.0
2016-Jul-16 22:30N 51°53' E 004°17'  

Dump ship's entire track history